sensor_id;sensor_type;location;lat;lon;timestamp;P1;durP1;ratioP1;P2;durP2;ratioP2
22017;SDS011;11173;51.050;7.108;2023-03-01T00:04:55;5.25;;;4.75;;
22017;SDS011;11173;51.050;7.108;2023-03-01T00:14:55;5.40;;;4.93;;
22017;SDS011;11173;51.050;7.108;2023-03-01T00:24:55;8.70;;;4.10;;
22017;SDS011;11173;51.050;7.108;2023-03-01T00:34:56;4.22;;;3.92;;
22017;SDS011;11173;51.050;7.108;2023-03-01T00:44:56;4.93;;;4.53;;
22017;SDS011;11173;51.050;7.108;2023-03-01T00:54:56;5.65;;;5.07;;
22017;SDS011;11173;51.050;7.108;2023-03-01T01:04:57;7.18;;;5.88;;
22017;SDS011;11173;51.050;7.108;2023-03-01T01:14:58;6.28;;;5.65;;
22017;SDS011;11173;51.050;7.108;2023-03-01T01:24:58;6.80;;;6.20;;
22017;SDS011;11173;51.050;7.108;2023-03-01T01:34:58;6.25;;;5.68;;
22017;SDS011;11173;51.050;7.108;2023-03-01T01:55:19;6.32;;;5.72;;
22017;SDS011;11173;51.050;7.108;2023-03-01T02:05:36;6.45;;;5.85;;
22017;SDS011;11173;51.050;7.108;2023-03-01T02:15:38;5.80;;;5.30;;
22017;SDS011;11173;51.050;7.108;2023-03-01T02:35:39;7.18;;;6.47;;
22017;SDS011;11173;51.050;7.108;2023-03-01T02:45:43;6.63;;;6.05;;
22017;SDS011;11173;51.050;7.108;2023-03-01T02:55:47;7.28;;;6.63;;
22017;SDS011;11173;51.050;7.108;2023-03-01T03:05:48;8.15;;;7.35;;
22017;SDS011;11173;51.050;7.108;2023-03-01T03:15:48;7.38;;;6.50;;
22017;SDS011;11173;51.050;7.108;2023-03-01T03:25:49;10.23;;;7.57;;
22017;SDS011;11173;51.050;7.108;2023-03-01T03:35:49;8.50;;;7.72;;
22017;SDS011;11173;51.050;7.108;2023-03-01T03:45:50;11.05;;;8.52;;
22017;SDS011;11173;51.050;7.108;2023-03-01T03:55:51;12.15;;;7.97;;
22017;SDS011;11173;51.050;7.108;2023-03-01T04:05:52;9.20;;;8.25;;
22017;SDS011;11173;51.050;7.108;2023-03-01T04:15:52;10.95;;;8.88;;
22017;SDS011;11173;51.050;7.108;2023-03-01T04:25:54;8.38;;;7.57;;
22017;SDS011;11173;51.050;7.108;2023-03-01T04:35:55;11.25;;;10.02;;
22017;SDS011;11173;51.050;7.108;2023-03-01T04:45:59;13.63;;;9.50;;
22017;SDS011;11173;51.050;7.108;2023-03-01T04:55:59;11.27;;;9.35;;
22017;SDS011;11173;51.050;7.108;2023-03-01T05:06:00;11.27;;;8.52;;
22017;SDS011;11173;51.050;7.108;2023-03-01T05:16:00;10.68;;;8.80;;
22017;SDS011;11173;51.050;7.108;2023-03-01T05:26:01;14.77;;;9.98;;
22017;SDS011;11173;51.050;7.108;2023-03-01T05:36:02;11.52;;;9.65;;
22017;SDS011;11173;51.050;7.108;2023-03-01T05:46:02;10.98;;;8.30;;
22017;SDS011;11173;51.050;7.108;2023-03-01T05:56:04;11.13;;;9.32;;
22017;SDS011;11173;51.050;7.108;2023-03-01T06:06:04;11.07;;;9.45;;
22017;SDS011;11173;51.050;7.108;2023-03-01T06:16:05;11.90;;;10.07;;
22017;SDS011;11173;51.050;7.108;2023-03-01T06:26:07;12.50;;;9.25;;
22017;SDS011;11173;51.050;7.108;2023-03-01T06:36:07;11.63;;;9.55;;
22017;SDS011;11173;51.050;7.108;2023-03-01T06:46:08;13.07;;;9.65;;
22017;SDS011;11173;51.050;7.108;2023-03-01T06:56:08;11.80;;;9.02;;
22017;SDS011;11173;51.050;7.108;2023-03-01T07:06:08;11.23;;;9.38;;
22017;SDS011;11173;51.050;7.108;2023-03-01T07:16:08;13.23;;;9.20;;
22017;SDS011;11173;51.050;7.108;2023-03-01T07:26:09;13.25;;;9.57;;
22017;SDS011;11173;51.050;7.108;2023-03-01T07:36:09;10.35;;;8.63;;
22017;SDS011;11173;51.050;7.108;2023-03-01T07:46:09;12.75;;;9.93;;
22017;SDS011;11173;51.050;7.108;2023-03-01T07:56:11;12.50;;;10.15;;
22017;SDS011;11173;51.050;7.108;2023-03-01T08:06:12;13.55;;;9.85;;
22017;SDS011;11173;51.050;7.108;2023-03-01T08:16:13;11.63;;;9.40;;
22017;SDS011;11173;51.050;7.108;2023-03-01T08:26:16;11.68;;;8.50;;
22017;SDS011;11173;51.050;7.108;2023-03-01T08:36:17;12.57;;;9.75;;
22017;SDS011;11173;51.050;7.108;2023-03-01T08:46:17;9.70;;;7.65;;
22017;SDS011;11173;51.050;7.108;2023-03-01T08:56:18;9.55;;;8.05;;
22017;SDS011;11173;51.050;7.108;2023-03-01T09:06:19;11.63;;;8.45;;
22017;SDS011;11173;51.050;7.108;2023-03-01T09:16:20;12.95;;;8.00;;
22017;SDS011;11173;51.050;7.108;2023-03-01T09:26:21;11.82;;;8.02;;
22017;SDS011;11173;51.050;7.108;2023-03-01T09:36:23;9.50;;;7.00;;
22017;SDS011;11173;51.050;7.108;2023-03-01T09:46:23;8.77;;;7.10;;
22017;SDS011;11173;51.050;7.108;2023-03-01T09:56:27;7.60;;;6.80;;
22017;SDS011;11173;51.050;7.108;2023-03-01T10:06:29;9.55;;;7.47;;
22017;SDS011;11173;51.050;7.108;2023-03-01T10:16:52;9.10;;;6.85;;
22017;SDS011;11173;51.050;7.108;2023-03-01T10:26:55;7.72;;;6.45;;
22017;SDS011;11173;51.050;7.108;2023-03-01T10:36:57;7.60;;;6.40;;
22017;SDS011;11173;51.050;7.108;2023-03-01T10:47:01;9.25;;;7.05;;
22017;SDS011;11173;51.050;7.108;2023-03-01T10:57:03;8.15;;;7.20;;
22017;SDS011;11173;51.050;7.108;2023-03-01T11:07:03;14.35;;;7.38;;
22017;SDS011;11173;51.050;7.108;2023-03-01T11:17:05;9.90;;;7.00;;
22017;SDS011;11173;51.050;7.108;2023-03-01T11:27:31;7.65;;;5.70;;
22017;SDS011;11173;51.050;7.108;2023-03-01T11:37:33;7.50;;;5.80;;
22017;SDS011;11173;51.050;7.108;2023-03-01T11:58:13;8.07;;;6.32;;
22017;SDS011;11173;51.050;7.108;2023-03-01T12:08:49;4.60;;;4.20;;
22017;SDS011;11173;51.050;7.108;2023-03-01T12:49:16;6.03;;;5.53;;
22017;SDS011;11173;51.050;7.108;2023-03-01T12:59:57;6.70;;;6.00;;
22017;SDS011;11173;51.050;7.108;2023-03-01T13:09:48;6.55;;;5.60;;
22017;SDS011;11173;51.050;7.108;2023-03-01T13:19:57;7.25;;;5.32;;
22017;SDS011;11173;51.050;7.108;2023-03-01T13:29:59;6.50;;;5.38;;
22017;SDS011;11173;51.050;7.108;2023-03-01T13:50:18;8.27;;;4.68;;
22017;SDS011;11173;51.050;7.108;2023-03-01T14:00:40;6.95;;;4.90;;
22017;SDS011;11173;51.050;7.108;2023-03-01T14:10:43;7.00;;;5.57;;
22017;SDS011;11173;51.050;7.108;2023-03-01T14:20:45;8.80;;;5.97;;
22017;SDS011;11173;51.050;7.108;2023-03-01T14:30:51;11.48;;;6.15;;
22017;SDS011;11173;51.050;7.108;2023-03-01T14:40:53;10.30;;;6.47;;
22017;SDS011;11173;51.050;7.108;2023-03-01T14:50:55;6.13;;;4.97;;
22017;SDS011;11173;51.050;7.108;2023-03-01T15:00:56;5.97;;;4.95;;
22017;SDS011;11173;51.050;7.108;2023-03-01T15:31:20;8.85;;;6.22;;
22017;SDS011;11173;51.050;7.108;2023-03-01T15:41:25;7.78;;;5.70;;
22017;SDS011;11173;51.050;7.108;2023-03-01T15:51:31;9.27;;;5.72;;
22017;SDS011;11173;51.050;7.108;2023-03-01T16:01:32;8.93;;;5.72;;
22017;SDS011;11173;51.050;7.108;2023-03-01T16:11:35;7.30;;;4.88;;
22017;SDS011;11173;51.050;7.108;2023-03-01T16:21:36;6.88;;;4.30;;
22017;SDS011;11173;51.050;7.108;2023-03-01T16:31:37;6.95;;;4.95;;
22017;SDS011;11173;51.050;7.108;2023-03-01T16:41:37;4.55;;;4.15;;
22017;SDS011;11173;51.050;7.108;2023-03-01T16:51:37;6.43;;;4.45;;
22017;SDS011;11173;51.050;7.108;2023-03-01T17:01:37;9.18;;;5.10;;
22017;SDS011;11173;51.050;7.108;2023-03-01T17:11:40;5.63;;;5.03;;
22017;SDS011;11173;51.050;7.108;2023-03-01T17:21:40;6.65;;;5.15;;
22017;SDS011;11173;51.050;7.108;2023-03-01T17:31:41;8.60;;;5.53;;
22017;SDS011;11173;51.050;7.108;2023-03-01T17:41:41;9.25;;;5.57;;
22017;SDS011;11173;51.050;7.108;2023-03-01T17:51:42;9.02;;;6.38;;
22017;SDS011;11173;51.050;7.108;2023-03-01T18:01:43;9.57;;;6.13;;
22017;SDS011;11173;51.050;7.108;2023-03-01T18:11:44;8.00;;;5.47;;
22017;SDS011;11173;51.050;7.108;2023-03-01T18:21:44;8.43;;;5.88;;
22017;SDS011;11173;51.050;7.108;2023-03-01T18:31:44;7.03;;;5.82;;
22017;SDS011;11173;51.050;7.108;2023-03-01T18:41:44;8.02;;;5.40;;
22017;SDS011;11173;51.050;7.108;2023-03-01T18:51:45;6.07;;;5.47;;
22017;SDS011;11173;51.050;7.108;2023-03-01T19:01:45;10.30;;;6.10;;
22017;SDS011;11173;51.050;7.108;2023-03-01T19:11:45;7.22;;;5.20;;
22017;SDS011;11173;51.050;7.108;2023-03-01T19:21:46;6.35;;;5.20;;
22017;SDS011;11173;51.050;7.108;2023-03-01T19:31:46;8.93;;;6.10;;
22017;SDS011;11173;51.050;7.108;2023-03-01T19:41:46;9.43;;;5.60;;
22017;SDS011;11173;51.050;7.108;2023-03-01T19:51:49;6.45;;;5.50;;
22017;SDS011;11173;51.050;7.108;2023-03-01T20:01:50;6.53;;;5.18;;
22017;SDS011;11173;51.050;7.108;2023-03-01T20:11:51;7.90;;;6.07;;
22017;SDS011;11173;51.050;7.108;2023-03-01T20:21:51;6.20;;;5.35;;
22017;SDS011;11173;51.050;7.108;2023-03-01T20:31:51;7.05;;;5.35;;
22017;SDS011;11173;51.050;7.108;2023-03-01T20:41:52;7.07;;;5.20;;
22017;SDS011;11173;51.050;7.108;2023-03-01T20:51:52;5.15;;;4.45;;
22017;SDS011;11173;51.050;7.108;2023-03-01T21:01:52;4.60;;;4.20;;
22017;SDS011;11173;51.050;7.108;2023-03-01T21:11:53;3.78;;;3.40;;
22017;SDS011;11173;51.050;7.108;2023-03-01T21:21:53;5.40;;;4.75;;
22017;SDS011;11173;51.050;7.108;2023-03-01T21:31:53;6.05;;;5.45;;
22017;SDS011;11173;51.050;7.108;2023-03-01T21:41:55;5.45;;;4.95;;
22017;SDS011;11173;51.050;7.108;2023-03-01T21:51:55;4.90;;;4.40;;
22017;SDS011;11173;51.050;7.108;2023-03-01T22:01:55;4.60;;;4.20;;
22017;SDS011;11173;51.050;7.108;2023-03-01T22:11:56;5.75;;;5.13;;
22017;SDS011;11173;51.050;7.108;2023-03-01T22:22:02;4.85;;;3.60;;
22017;SDS011;11173;51.050;7.108;2023-03-01T22:32:03;5.47;;;4.50;;
22017;SDS011;11173;51.050;7.108;2023-03-01T22:42:03;5.65;;;4.85;;
22017;SDS011;11173;51.050;7.108;2023-03-01T22:52:05;8.55;;;5.40;;
22017;SDS011;11173;51.050;7.108;2023-03-01T23:02:05;8.65;;;5.63;;
22017;SDS011;11173;51.050;7.108;2023-03-01T23:12:05;10.02;;;7.05;;
22017;SDS011;11173;51.050;7.108;2023-03-01T23:22:08;6.45;;;5.85;;
22017;SDS011;11173;51.050;7.108;2023-03-01T23:32:08;7.53;;;6.15;;
22017;SDS011;11173;51.050;7.108;2023-03-01T23:42:09;7.70;;;5.97;;
22017;SDS011;11173;51.050;7.108;2023-03-01T23:52:12;6.15;;;5.43;;
